sensor_id;sensor_type;location;lat;lon;timestamp;temperature;humidity
47616;DHT22;69146;52.266;7.000;2023-07-16T00:01:27;19.10;99.90
47616;DHT22;69146;52.266;7.000;2023-07-16T00:04:11;19.10;99.90
47616;DHT22;69146;52.266;7.000;2023-07-16T00:06:56;19.00;99.90
47616;DHT22;69146;52.266;7.000;2023-07-16T00:09:40;19.00;99.90
47616;DHT22;69146;52.266;7.000;2023-07-16T00:12:26;19.00;99.90
47616;DHT22;69146;52.266;7.000;2023-07-16T00:15:11;19.00;99.90
47616;DHT22;69146;52.266;7.000;2023-07-16T00:17:56;19.00;99.90
47616;DHT22;69146;52.266;7.000;2023-07-16T00:20:40;18.90;99.90
47616;DHT22;69146;52.266;7.000;2023-07-16T00:23:25;18.80;99.90
47616;DHT22;69146;52.266;7.000;2023-07-16T00:26:09;18.80;99.90
47616;DHT22;69146;52.266;7.000;2023-07-16T00:28:53;18.70;99.90
47616;DHT22;69146;52.266;7.000;2023-07-16T00:31:39;18.70;99.90
47616;DHT22;69146;52.266;7.000;2023-07-16T00:34:24;18.70;99.90
47616;DHT22;69146;52.266;7.000;2023-07-16T00:37:08;18.70;99.90
47616;DHT22;69146;52.266;7.000;2023-07-16T00:39:53;18.70;99.90
47616;DHT22;69146;52.266;7.000;2023-07-16T00:42:37;18.70;99.90
47616;DHT22;69146;52.266;7.000;2023-07-16T00:45:22;18.60;99.90
47616;DHT22;69146;52.266;7.000;2023-07-16T00:48:08;18.60;99.90
47616;DHT22;69146;52.266;7.000;2023-07-16T00:50:52;18.60;99.90
47616;DHT22;69146;52.266;7.000;2023-07-16T00:53:37;18.60;99.90
47616;DHT22;69146;52.266;7.000;2023-07-16T00:56:22;18.60;99.90
47616;DHT22;69146;52.266;7.000;2023-07-16T00:59:07;18.60;99.90
47616;DHT22;69146;52.266;7.000;2023-07-16T01:01:51;18.60;99.90
47616;DHT22;69146;52.266;7.000;2023-07-16T01:04:40;18.60;99.90
47616;DHT22;69146;52.266;7.000;2023-07-16T01:07:25;18.60;99.90
47616;DHT22;69146;52.266;7.000;2023-07-16T01:10:11;18.50;99.90
47616;DHT22;69146;52.266;7.000;2023-07-16T01:12:55;18.50;99.90
47616;DHT22;69146;52.266;7.000;2023-07-16T01:15:40;18.40;99.90
47616;DHT22;69146;52.266;7.000;2023-07-16T01:18:25;18.40;99.90
47616;DHT22;69146;52.266;7.000;2023-07-16T01:21:10;18.30;99.90
47616;DHT22;69146;52.266;7.000;2023-07-16T01:27:22;18.20;99.90
47616;DHT22;69146;52.266;7.000;2023-07-16T01:30:14;18.20;99.90
47616;DHT22;69146;52.266;7.000;2023-07-16T01:33:00;18.10;99.90
47616;DHT22;69146;52.266;7.000;2023-07-16T01:35:45;18.10;99.90
47616;DHT22;69146;52.266;7.000;2023-07-16T01:38:31;18.10;99.90
47616;DHT22;69146;52.266;7.000;2023-07-16T01:41:15;18.00;99.90
47616;DHT22;69146;52.266;7.000;2023-07-16T01:44:00;18.00;99.90
47616;DHT22;69146;52.266;7.000;2023-07-16T01:46:46;18.00;99.90
47616;DHT22;69146;52.266;7.000;2023-07-16T01:49:33;18.00;99.90
47616;DHT22;69146;52.266;7.000;2023-07-16T01:52:17;18.00;99.90
47616;DHT22;69146;52.266;7.000;2023-07-16T01:55:02;18.00;99.90
47616;DHT22;69146;52.266;7.000;2023-07-16T01:57:46;18.00;99.90
47616;DHT22;69146;52.266;7.000;2023-07-16T02:00:30;17.90;99.90
47616;DHT22;69146;52.266;7.000;2023-07-16T02:03:16;17.90;99.90
47616;DHT22;69146;52.266;7.000;2023-07-16T02:06:00;17.80;99.90
47616;DHT22;69146;52.266;7.000;2023-07-16T02:08:45;17.80;99.90
47616;DHT22;69146;52.266;7.000;2023-07-16T02:11:30;17.80;99.90
47616;DHT22;69146;52.266;7.000;2023-07-16T02:14:14;17.80;99.90
47616;DHT22;69146;52.266;7.000;2023-07-16T02:17:00;17.70;99.90
47616;DHT22;69146;52.266;7.000;2023-07-16T02:19:45;17.70;99.90
47616;DHT22;69146;52.266;7.000;2023-07-16T02:22:30;17.70;99.90
47616;DHT22;69146;52.266;7.000;2023-07-16T02:25:14;17.70;99.90
47616;DHT22;69146;52.266;7.000;2023-07-16T02:27:58;17.70;99.90
47616;DHT22;69146;52.266;7.000;2023-07-16T02:30:43;17.60;99.90
47616;DHT22;69146;52.266;7.000;2023-07-16T02:33:28;17.60;99.90
47616;DHT22;69146;52.266;7.000;2023-07-16T02:36:13;17.50;99.90
47616;DHT22;69146;52.266;7.000;2023-07-16T02:38:58;17.50;99.90
47616;DHT22;69146;52.266;7.000;2023-07-16T02:41:42;17.50;99.90
47616;DHT22;69146;52.266;7.000;2023-07-16T02:44:28;17.50;99.90
47616;DHT22;69146;52.266;7.000;2023-07-16T02:47:12;17.50;99.90
47616;DHT22;69146;52.266;7.000;2023-07-16T02:49:57;17.50;99.90
47616;DHT22;69146;52.266;7.000;2023-07-16T02:52:42;17.50;99.90
47616;DHT22;69146;52.266;7.000;2023-07-16T02:55:27;17.40;99.90
47616;DHT22;69146;52.266;7.000;2023-07-16T02:58:11;17.30;99.90
47616;DHT22;69146;52.266;7.000;2023-07-16T03:00:56;17.30;99.90
47616;DHT22;69146;52.266;7.000;2023-07-16T03:03:40;17.30;99.90
47616;DHT22;69146;52.266;7.000;2023-07-16T03:06:25;17.30;99.90
47616;DHT22;69146;52.266;7.000;2023-07-16T03:09:11;17.30;99.90
47616;DHT22;69146;52.266;7.000;2023-07-16T03:11:55;17.30;99.90
47616;DHT22;69146;52.266;7.000;2023-07-16T03:14:40;17.30;99.90
47616;DHT22;69146;52.266;7.000;2023-07-16T03:17:24;17.20;99.90
47616;DHT22;69146;52.266;7.000;2023-07-16T03:20:09;17.10;99.90
47616;DHT22;69146;52.266;7.000;2023-07-16T03:22:54;17.10;99.90
47616;DHT22;69146;52.266;7.000;2023-07-16T03:25:40;17.10;99.90
47616;DHT22;69146;52.266;7.000;2023-07-16T03:28:24;17.10;99.90
47616;DHT22;69146;52.266;7.000;2023-07-16T03:31:08;17.00;99.90
47616;DHT22;69146;52.266;7.000;2023-07-16T03:33:53;17.00;99.90
47616;DHT22;69146;52.266;7.000;2023-07-16T03:36:37;17.00;99.90
47616;DHT22;69146;52.266;7.000;2023-07-16T03:39:23;17.00;99.90
47616;DHT22;69146;52.266;7.000;2023-07-16T03:42:08;17.00;99.90
47616;DHT22;69146;52.266;7.000;2023-07-16T03:44:54;17.00;99.90
47616;DHT22;69146;52.266;7.000;2023-07-16T03:47:39;17.00;99.90
47616;DHT22;69146;52.266;7.000;2023-07-16T03:50:23;16.90;99.90
47616;DHT22;69146;52.266;7.000;2023-07-16T03:53:07;16.90;99.90
47616;DHT22;69146;52.266;7.000;2023-07-16T03:55:52;16.90;99.90
47616;DHT22;69146;52.266;7.000;2023-07-16T03:58:37;16.90;99.90
47616;DHT22;69146;52.266;7.000;2023-07-16T04:01:22;16.90;99.90
47616;DHT22;69146;52.266;7.000;2023-07-16T04:04:06;16.90;99.90
47616;DHT22;69146;52.266;7.000;2023-07-16T04:06:51;16.90;99.90
47616;DHT22;69146;52.266;7.000;2023-07-16T04:09:36;16.90;99.90
47616;DHT22;69146;52.266;7.000;2023-07-16T04:12:21;16.90;99.90
47616;DHT22;69146;52.266;7.000;2023-07-16T04:15:08;16.90;99.90
47616;DHT22;69146;52.266;7.000;2023-07-16T04:17:55;17.00;99.90
47616;DHT22;69146;52.266;7.000;2023-07-16T04:20:40;17.00;99.90
47616;DHT22;69146;52.266;7.000;2023-07-16T04:23:24;16.90;99.90
47616;DHT22;69146;52.266;7.000;2023-07-16T04:26:08;17.00;99.90
47616;DHT22;69146;52.266;7.000;2023-07-16T04:28:53;17.00;99.90
47616;DHT22;69146;52.266;7.000;2023-07-16T04:31:38;17.00;99.90
47616;DHT22;69146;52.266;7.000;2023-07-16T04:34:23;17.00;99.90
47616;DHT22;69146;52.266;7.000;2023-07-16T04:37:07;17.00;99.90
47616;DHT22;69146;52.266;7.000;2023-07-16T04:39:52;17.10;99.90
47616;DHT22;69146;52.266;7.000;2023-07-16T04:42:36;17.10;99.90
47616;DHT22;69146;52.266;7.000;2023-07-16T04:45:21;17.10;99.90
47616;DHT22;69146;52.266;7.000;2023-07-16T04:48:06;17.10;99.90
47616;DHT22;69146;52.266;7.000;2023-07-16T04:50:51;17.20;99.90
47616;DHT22;69146;52.266;7.000;2023-07-16T04:53:37;17.20;99.90
47616;DHT22;69146;52.266;7.000;2023-07-16T04:56:21;17.20;99.90
47616;DHT22;69146;52.266;7.000;2023-07-16T04:59:05;17.20;99.90
47616;DHT22;69146;52.266;7.000;2023-07-16T05:01:50;17.20;99.90
47616;DHT22;69146;52.266;7.000;2023-07-16T05:04:36;17.20;99.90
47616;DHT22;69146;52.266;7.000;2023-07-16T05:07:20;17.30;99.90
47616;DHT22;69146;52.266;7.000;2023-07-16T05:10:05;17.30;99.90
47616;DHT22;69146;52.266;7.000;2023-07-16T05:12:50;17.30;99.90
47616;DHT22;69146;52.266;7.000;2023-07-16T05:15:34;17.30;99.90
47616;DHT22;69146;52.266;7.000;2023-07-16T05:18:18;17.40;99.90
47616;DHT22;69146;52.266;7.000;2023-07-16T05:21:04;17.40;99.90
47616;DHT22;69146;52.266;7.000;2023-07-16T05:23:48;17.40;99.90
47616;DHT22;69146;52.266;7.000;2023-07-16T05:26:33;17.50;99.90
47616;DHT22;69146;52.266;7.000;2023-07-16T05:29:17;17.50;99.90
47616;DHT22;69146;52.266;7.000;2023-07-16T05:32:02;17.50;99.90
47616;DHT22;69146;52.266;7.000;2023-07-16T05:34:47;17.50;99.90
47616;DHT22;69146;52.266;7.000;2023-07-16T05:37:32;17.50;99.90
47616;DHT22;69146;52.266;7.000;2023-07-16T05:40:17;17.50;99.90
47616;DHT22;69146;52.266;7.000;2023-07-16T05:43:03;17.50;99.90
47616;DHT22;69146;52.266;7.000;2023-07-16T05:45:48;17.50;99.90
47616;DHT22;69146;52.266;7.000;2023-07-16T05:48:32;17.50;99.90
47616;DHT22;69146;52.266;7.000;2023-07-16T05:51:16;17.50;99.90
47616;DHT22;69146;52.266;7.000;2023-07-16T05:54:02;17.50;99.90
47616;DHT22;69146;52.266;7.000;2023-07-16T05:56:47;17.60;99.90
47616;DHT22;69146;52.266;7.000;2023-07-16T05:59:31;17.60;99.90
47616;DHT22;69146;52.266;7.000;2023-07-16T06:02:21;17.60;99.90
47616;DHT22;69146;52.266;7.000;2023-07-16T06:05:05;17.60;99.90
47616;DHT22;69146;52.266;7.000;2023-07-16T06:07:50;17.70;99.90
47616;DHT22;69146;52.266;7.000;2023-07-16T06:10:36;17.70;99.90
47616;DHT22;69146;52.266;7.000;2023-07-16T06:13:22;17.70;99.90
47616;DHT22;69146;52.266;7.000;2023-07-16T06:16:06;17.70;99.90
47616;DHT22;69146;52.266;7.000;2023-07-16T06:18:50;17.70;99.90
47616;DHT22;69146;52.266;7.000;2023-07-16T06:21:35;17.80;99.90
47616;DHT22;69146;52.266;7.000;2023-07-16T06:24:19;17.80;99.90
47616;DHT22;69146;52.266;7.000;2023-07-16T06:27:05;17.90;99.90
47616;DHT22;69146;52.266;7.000;2023-07-16T06:29:50;17.90;99.90
47616;DHT22;69146;52.266;7.000;2023-07-16T06:32:34;18.00;99.90
47616;DHT22;69146;52.266;7.000;2023-07-16T06:35:19;18.10;99.90
47616;DHT22;69146;52.266;7.000;2023-07-16T06:38:04;18.20;99.90
47616;DHT22;69146;52.266;7.000;2023-07-16T06:40:48;18.20;99.90
47616;DHT22;69146;52.266;7.000;2023-07-16T06:43:36;18.20;99.90
47616;DHT22;69146;52.266;7.000;2023-07-16T06:46:21;18.20;99.90
47616;DHT22;69146;52.266;7.000;2023-07-16T06:49:05;18.20;99.90
47616;DHT22;69146;52.266;7.000;2023-07-16T06:51:51;18.30;99.90
47616;DHT22;69146;52.266;7.000;2023-07-16T06:54:35;18.30;99.90
47616;DHT22;69146;52.266;7.000;2023-07-16T06:57:20;18.30;99.90
47616;DHT22;69146;52.266;7.000;2023-07-16T07:00:06;18.40;99.90
47616;DHT22;69146;52.266;7.000;2023-07-16T07:02:51;18.50;99.90
47616;DHT22;69146;52.266;7.000;2023-07-16T07:05:35;18.40;99.90
47616;DHT22;69146;52.266;7.000;2023-07-16T07:08:21;18.50;99.90
47616;DHT22;69146;52.266;7.000;2023-07-16T07:11:05;18.60;99.90
47616;DHT22;69146;52.266;7.000;2023-07-16T07:13:51;18.70;99.90
47616;DHT22;69146;52.266;7.000;2023-07-16T07:16:37;18.80;99.90
47616;DHT22;69146;52.266;7.000;2023-07-16T07:19:24;18.90;99.90
47616;DHT22;69146;52.266;7.000;2023-07-16T07:22:08;19.00;99.90
47616;DHT22;69146;52.266;7.000;2023-07-16T07:24:52;19.10;99.90
47616;DHT22;69146;52.266;7.000;2023-07-16T07:27:37;19.30;99.90
47616;DHT22;69146;52.266;7.000;2023-07-16T07:30:21;19.30;99.90
47616;DHT22;69146;52.266;7.000;2023-07-16T07:33:07;19.10;99.90
47616;DHT22;69146;52.266;7.000;2023-07-16T07:35:52;19.00;99.90
47616;DHT22;69146;52.266;7.000;2023-07-16T07:38:37;19.10;99.90
47616;DHT22;69146;52.266;7.000;2023-07-16T07:41:22;19.20;99.90
47616;DHT22;69146;52.266;7.000;2023-07-16T07:44:06;19.30;99.90
47616;DHT22;69146;52.266;7.000;2023-07-16T07:46:51;19.30;99.90
47616;DHT22;69146;52.266;7.000;2023-07-16T07:49:36;19.40;99.90
47616;DHT22;69146;52.266;7.000;2023-07-16T07:52:21;19.60;99.90
47616;DHT22;69146;52.266;7.000;2023-07-16T07:55:07;19.70;99.90
47616;DHT22;69146;52.266;7.000;2023-07-16T07:57:53;19.70;99.90
47616;DHT22;69146;52.266;7.000;2023-07-16T08:00:38;19.70;99.90
47616;DHT22;69146;52.266;7.000;2023-07-16T08:03:23;19.70;99.90
47616;DHT22;69146;52.266;7.000;2023-07-16T08:06:09;19.90;99.90
47616;DHT22;69146;52.266;7.000;2023-07-16T08:08:56;20.10;99.90
47616;DHT22;69146;52.266;7.000;2023-07-16T08:11:42;20.20;99.90
47616;DHT22;69146;52.266;7.000;2023-07-16T08:14:27;20.30;99.90
47616;DHT22;69146;52.266;7.000;2023-07-16T08:17:11;20.50;99.90
47616;DHT22;69146;52.266;7.000;2023-07-16T08:19:55;20.60;99.90
47616;DHT22;69146;52.266;7.000;2023-07-16T08:22:41;20.60;99.90
47616;DHT22;69146;52.266;7.000;2023-07-16T08:25:26;20.60;99.90
47616;DHT22;69146;52.266;7.000;2023-07-16T08:28:11;20.70;99.90
47616;DHT22;69146;52.266;7.000;2023-07-16T08:30:56;20.90;99.80
47616;DHT22;69146;52.266;7.000;2023-07-16T08:33:41;20.90;99.70
47616;DHT22;69146;52.266;7.000;2023-07-16T08:36:25;20.90;99.20
47616;DHT22;69146;52.266;7.000;2023-07-16T08:39:11;21.00;99.90
47616;DHT22;69146;52.266;7.000;2023-07-16T08:41:56;21.30;99.60
47616;DHT22;69146;52.266;7.000;2023-07-16T08:44:40;21.30;99.30
47616;DHT22;69146;52.266;7.000;2023-07-16T08:47:31;21.40;99.00
47616;DHT22;69146;52.266;7.000;2023-07-16T08:50:16;21.50;98.70
47616;DHT22;69146;52.266;7.000;2023-07-16T08:53:04;21.50;98.80
47616;DHT22;69146;52.266;7.000;2023-07-16T08:55:50;21.70;98.90
47616;DHT22;69146;52.266;7.000;2023-07-16T08:58:35;21.90;98.50
47616;DHT22;69146;52.266;7.000;2023-07-16T09:01:21;22.20;98.00
47616;DHT22;69146;52.266;7.000;2023-07-16T09:04:08;22.20;97.30
47616;DHT22;69146;52.266;7.000;2023-07-16T09:06:53;22.10;97.30
47616;DHT22;69146;52.266;7.000;2023-07-16T09:09:37;22.30;96.90
47616;DHT22;69146;52.266;7.000;2023-07-16T09:12:24;22.30;96.90
47616;DHT22;69146;52.266;7.000;2023-07-16T09:15:09;22.50;96.70
47616;DHT22;69146;52.266;7.000;2023-07-16T09:17:54;22.50;96.60
47616;DHT22;69146;52.266;7.000;2023-07-16T09:20:39;22.30;96.70
47616;DHT22;69146;52.266;7.000;2023-07-16T09:23:24;22.40;96.40
47616;DHT22;69146;52.266;7.000;2023-07-16T09:26:08;22.50;96.60
47616;DHT22;69146;52.266;7.000;2023-07-16T09:28:55;22.60;96.20
47616;DHT22;69146;52.266;7.000;2023-07-16T09:31:39;22.60;96.10
47616;DHT22;69146;52.266;7.000;2023-07-16T09:34:35;22.60;96.10
47616;DHT22;69146;52.266;7.000;2023-07-16T09:37:19;22.50;96.00
47616;DHT22;69146;52.266;7.000;2023-07-16T09:40:04;22.40;95.90
47616;DHT22;69146;52.266;7.000;2023-07-16T09:42:51;22.40;95.90
47616;DHT22;69146;52.266;7.000;2023-07-16T09:45:37;22.50;96.00
47616;DHT22;69146;52.266;7.000;2023-07-16T09:48:22;22.70;96.10
47616;DHT22;69146;52.266;7.000;2023-07-16T09:51:07;22.80;95.70
47616;DHT22;69146;52.266;7.000;2023-07-16T09:53:53;23.00;96.20
47616;DHT22;69146;52.266;7.000;2023-07-16T09:56:39;23.10;95.00
47616;DHT22;69146;52.266;7.000;2023-07-16T09:59:24;23.10;95.00
47616;DHT22;69146;52.266;7.000;2023-07-16T10:02:11;23.00;94.80
47616;DHT22;69146;52.266;7.000;2023-07-16T10:04:55;23.00;95.30
47616;DHT22;69146;52.266;7.000;2023-07-16T10:07:41;23.00;95.30
47616;DHT22;69146;52.266;7.000;2023-07-16T10:10:37;23.00;94.50
47616;DHT22;69146;52.266;7.000;2023-07-16T10:13:23;22.80;94.50
47616;DHT22;69146;52.266;7.000;2023-07-16T10:16:07;22.60;95.00
47616;DHT22;69146;52.266;7.000;2023-07-16T10:18:57;22.60;95.10
47616;DHT22;69146;52.266;7.000;2023-07-16T10:21:42;22.80;95.10
47616;DHT22;69146;52.266;7.000;2023-07-16T10:24:29;23.00;94.60
47616;DHT22;69146;52.266;7.000;2023-07-16T10:27:14;23.30;94.60
47616;DHT22;69146;52.266;7.000;2023-07-16T10:29:59;23.20;94.10
47616;DHT22;69146;52.266;7.000;2023-07-16T10:32:46;22.90;94.50
47616;DHT22;69146;52.266;7.000;2023-07-16T10:35:32;22.70;94.20
47616;DHT22;69146;52.266;7.000;2023-07-16T10:38:18;22.70;95.10
47616;DHT22;69146;52.266;7.000;2023-07-16T10:41:02;22.60;94.30
47616;DHT22;69146;52.266;7.000;2023-07-16T10:43:49;22.50;94.50
47616;DHT22;69146;52.266;7.000;2023-07-16T10:46:34;22.50;94.90
47616;DHT22;69146;52.266;7.000;2023-07-16T10:49:26;22.50;95.00
47616;DHT22;69146;52.266;7.000;2023-07-16T10:52:12;22.50;95.10
47616;DHT22;69146;52.266;7.000;2023-07-16T10:54:56;22.60;94.50
47616;DHT22;69146;52.266;7.000;2023-07-16T10:57:42;22.50;94.40
47616;DHT22;69146;52.266;7.000;2023-07-16T11:00:26;22.40;94.40
47616;DHT22;69146;52.266;7.000;2023-07-16T11:03:14;22.20;94.50
47616;DHT22;69146;52.266;7.000;2023-07-16T11:06:01;22.10;94.80
47616;DHT22;69146;52.266;7.000;2023-07-16T11:08:51;22.10;95.10
47616;DHT22;69146;52.266;7.000;2023-07-16T11:11:35;22.30;95.20
47616;DHT22;69146;52.266;7.000;2023-07-16T11:14:19;22.40;95.20
47616;DHT22;69146;52.266;7.000;2023-07-16T11:17:04;22.50;94.70
47616;DHT22;69146;52.266;7.000;2023-07-16T11:19:50;22.50;94.80
47616;DHT22;69146;52.266;7.000;2023-07-16T11:22:36;22.60;95.20
47616;DHT22;69146;52.266;7.000;2023-07-16T11:25:24;22.90;94.80
47616;DHT22;69146;52.266;7.000;2023-07-16T11:28:09;23.30;94.70
47616;DHT22;69146;52.266;7.000;2023-07-16T11:30:54;23.50;93.80
47616;DHT22;69146;52.266;7.000;2023-07-16T11:33:41;23.40;93.70
47616;DHT22;69146;52.266;7.000;2023-07-16T11:36:25;23.40;93.80
47616;DHT22;69146;52.266;7.000;2023-07-16T11:39:12;23.30;94.10
47616;DHT22;69146;52.266;7.000;2023-07-16T11:41:58;23.40;94.20
47616;DHT22;69146;52.266;7.000;2023-07-16T11:44:43;23.50;94.20
47616;DHT22;69146;52.266;7.000;2023-07-16T11:47:27;23.60;93.70
47616;DHT22;69146;52.266;7.000;2023-07-16T11:50:12;24.00;93.40
47616;DHT22;69146;52.266;7.000;2023-07-16T11:52:59;24.20;93.40
47616;DHT22;69146;52.266;7.000;2023-07-16T11:55:44;24.20;92.80
47616;DHT22;69146;52.266;7.000;2023-07-16T11:58:29;23.80;92.90
47616;DHT22;69146;52.266;7.000;2023-07-16T12:01:14;23.50;93.20
47616;DHT22;69146;52.266;7.000;2023-07-16T12:03:59;23.50;93.10
47616;DHT22;69146;52.266;7.000;2023-07-16T12:06:44;23.30;93.60
47616;DHT22;69146;52.266;7.000;2023-07-16T12:09:28;23.40;93.40
47616;DHT22;69146;52.266;7.000;2023-07-16T12:12:13;23.40;93.40
47616;DHT22;69146;52.266;7.000;2023-07-16T12:15:00;23.50;93.50
47616;DHT22;69146;52.266;7.000;2023-07-16T12:17:44;23.70;93.20
47616;DHT22;69146;52.266;7.000;2023-07-16T12:20:30;23.90;92.90
47616;DHT22;69146;52.266;7.000;2023-07-16T12:23:14;24.10;92.70
47616;DHT22;69146;52.266;7.000;2023-07-16T12:25:58;24.40;92.90
47616;DHT22;69146;52.266;7.000;2023-07-16T12:28:43;24.40;92.60
47616;DHT22;69146;52.266;7.000;2023-07-16T12:31:31;24.30;92.60
47616;DHT22;69146;52.266;7.000;2023-07-16T12:34:16;24.00;92.40
47616;DHT22;69146;52.266;7.000;2023-07-16T12:37:00;23.70;93.20
47616;DHT22;69146;52.266;7.000;2023-07-16T12:39:45;23.70;93.50
47616;DHT22;69146;52.266;7.000;2023-07-16T12:42:29;23.70;93.20
47616;DHT22;69146;52.266;7.000;2023-07-16T12:45:13;23.80;92.90
47616;DHT22;69146;52.266;7.000;2023-07-16T12:47:59;24.00;92.50
47616;DHT22;69146;52.266;7.000;2023-07-16T12:50:44;24.40;92.80
47616;DHT22;69146;52.266;7.000;2023-07-16T12:53:28;24.50;91.80
47616;DHT22;69146;52.266;7.000;2023-07-16T12:56:14;24.40;91.60
47616;DHT22;69146;52.266;7.000;2023-07-16T12:58:58;24.30;91.90
47616;DHT22;69146;52.266;7.000;2023-07-16T13:01:43;24.10;91.90
47616;DHT22;69146;52.266;7.000;2023-07-16T13:04:29;24.00;92.20
47616;DHT22;69146;52.266;7.000;2023-07-16T13:07:14;23.90;92.40
47616;DHT22;69146;52.266;7.000;2023-07-16T13:09:58;23.70;92.50
47616;DHT22;69146;52.266;7.000;2023-07-16T13:12:42;23.70;93.00
47616;DHT22;69146;52.266;7.000;2023-07-16T13:15:27;23.70;92.20
47616;DHT22;69146;52.266;7.000;2023-07-16T13:18:11;23.70;92.70
47616;DHT22;69146;52.266;7.000;2023-07-16T13:20:57;23.50;92.00
47616;DHT22;69146;52.266;7.000;2023-07-16T13:23:42;23.20;92.40
47616;DHT22;69146;52.266;7.000;2023-07-16T13:26:26;23.00;92.40
47616;DHT22;69146;52.266;7.000;2023-07-16T13:29:10;22.90;92.70
47616;DHT22;69146;52.266;7.000;2023-07-16T13:31:55;23.00;92.60
47616;DHT22;69146;52.266;7.000;2023-07-16T13:34:40;23.20;92.50
47616;DHT22;69146;52.266;7.000;2023-07-16T13:37:26;23.40;92.10
47616;DHT22;69146;52.266;7.000;2023-07-16T13:40:11;23.30;92.40
47616;DHT22;69146;52.266;7.000;2023-07-16T13:42:56;23.50;92.30
47616;DHT22;69146;52.266;7.000;2023-07-16T13:45:40;23.70;92.40
47616;DHT22;69146;52.266;7.000;2023-07-16T13:48:24;23.90;92.20
47616;DHT22;69146;52.266;7.000;2023-07-16T13:51:12;24.00;91.70
47616;DHT22;69146;52.266;7.000;2023-07-16T13:53:58;24.00;91.60
47616;DHT22;69146;52.266;7.000;2023-07-16T13:56:42;23.90;91.60
47616;DHT22;69146;52.266;7.000;2023-07-16T13:59:27;24.20;91.70
47616;DHT22;69146;52.266;7.000;2023-07-16T14:02:13;24.90;91.20
47616;DHT22;69146;52.266;7.000;2023-07-16T14:04:57;25.60;90.40
47616;DHT22;69146;52.266;7.000;2023-07-16T14:07:42;26.30;89.40
47616;DHT22;69146;52.266;7.000;2023-07-16T14:10:27;26.20;88.40
47616;DHT22;69146;52.266;7.000;2023-07-16T14:13:12;26.70;89.00
47616;DHT22;69146;52.266;7.000;2023-07-16T14:15:56;27.10;87.50
47616;DHT22;69146;52.266;7.000;2023-07-16T14:18:41;26.90;86.60
47616;DHT22;69146;52.266;7.000;2023-07-16T14:21:25;26.50;88.10
47616;DHT22;69146;52.266;7.000;2023-07-16T14:24:10;26.00;87.80
47616;DHT22;69146;52.266;7.000;2023-07-16T14:26:57;25.50;89.40
47616;DHT22;69146;52.266;7.000;2023-07-16T14:29:41;25.40;90.30
47616;DHT22;69146;52.266;7.000;2023-07-16T14:32:26;25.50;90.20
47616;DHT22;69146;52.266;7.000;2023-07-16T14:35:10;25.30;90.60
47616;DHT22;69146;52.266;7.000;2023-07-16T14:37:55;25.50;90.40
47616;DHT22;69146;52.266;7.000;2023-07-16T14:40:40;25.60;90.20
47616;DHT22;69146;52.266;7.000;2023-07-16T14:43:27;25.90;90.10
47616;DHT22;69146;52.266;7.000;2023-07-16T14:46:12;27.00;88.40
47616;DHT22;69146;52.266;7.000;2023-07-16T14:49:00;26.70;88.30
47616;DHT22;69146;52.266;7.000;2023-07-16T14:51:44;26.30;88.10
47616;DHT22;69146;52.266;7.000;2023-07-16T14:54:29;25.60;88.70
47616;DHT22;69146;52.266;7.000;2023-07-16T14:57:13;25.10;90.30
47616;DHT22;69146;52.266;7.000;2023-07-16T14:59:59;24.80;90.10
47616;DHT22;69146;52.266;7.000;2023-07-16T15:02:44;24.80;90.60
47616;DHT22;69146;52.266;7.000;2023-07-16T15:05:28;25.20;90.20
47616;DHT22;69146;52.266;7.000;2023-07-16T15:08:12;25.10;89.80
47616;DHT22;69146;52.266;7.000;2023-07-16T15:10:57;24.80;89.90
47616;DHT22;69146;52.266;7.000;2023-07-16T15:13:41;24.50;90.40
47616;DHT22;69146;52.266;7.000;2023-07-16T15:16:27;24.00;90.70
47616;DHT22;69146;52.266;7.000;2023-07-16T15:19:12;23.80;91.90
47616;DHT22;69146;52.266;7.000;2023-07-16T15:21:56;23.40;92.20
47616;DHT22;69146;52.266;7.000;2023-07-16T15:24:41;23.70;92.20
47616;DHT22;69146;52.266;7.000;2023-07-16T15:27:25;24.60;91.10
47616;DHT22;69146;52.266;7.000;2023-07-16T15:30:10;25.40;90.30
47616;DHT22;69146;52.266;7.000;2023-07-16T15:32:56;26.00;88.90
47616;DHT22;69146;52.266;7.000;2023-07-16T15:35:49;26.10;88.50
47616;DHT22;69146;52.266;7.000;2023-07-16T15:38:34;26.50;87.40
47616;DHT22;69146;52.266;7.000;2023-07-16T15:41:21;26.70;87.60
47616;DHT22;69146;52.266;7.000;2023-07-16T15:44:11;27.20;87.30
47616;DHT22;69146;52.266;7.000;2023-07-16T15:46:59;27.30;85.40
47616;DHT22;69146;52.266;7.000;2023-07-16T15:49:48;26.80;85.60
47616;DHT22;69146;52.266;7.000;2023-07-16T15:52:33;26.50;87.20
47616;DHT22;69146;52.266;7.000;2023-07-16T15:55:17;26.40;86.60
47616;DHT22;69146;52.266;7.000;2023-07-16T15:58:01;26.10;86.50
47616;DHT22;69146;52.266;7.000;2023-07-16T16:00:46;25.70;86.60
47616;DHT22;69146;52.266;7.000;2023-07-16T16:03:30;25.20;87.60
47616;DHT22;69146;52.266;7.000;2023-07-16T16:06:16;24.90;88.70
47616;DHT22;69146;52.266;7.000;2023-07-16T16:09:01;24.60;88.50
47616;DHT22;69146;52.266;7.000;2023-07-16T16:11:46;24.50;88.90
47616;DHT22;69146;52.266;7.000;2023-07-16T16:14:31;24.30;89.40
47616;DHT22;69146;52.266;7.000;2023-07-16T16:17:15;24.20;90.10
47616;DHT22;69146;52.266;7.000;2023-07-16T16:19:59;24.70;90.10
47616;DHT22;69146;52.266;7.000;2023-07-16T16:22:45;25.00;89.20
47616;DHT22;69146;52.266;7.000;2023-07-16T16:25:31;25.20;88.10
47616;DHT22;69146;52.266;7.000;2023-07-16T16:28:16;25.60;87.90
47616;DHT22;69146;52.266;7.000;2023-07-16T16:31:04;25.80;87.50
47616;DHT22;69146;52.266;7.000;2023-07-16T16:33:49;26.10;87.80
47616;DHT22;69146;52.266;7.000;2023-07-16T16:36:33;26.30;86.80
47616;DHT22;69146;52.266;7.000;2023-07-16T16:39:19;26.90;86.30
47616;DHT22;69146;52.266;7.000;2023-07-16T16:42:05;27.00;85.40
47616;DHT22;69146;52.266;7.000;2023-07-16T16:44:50;26.60;85.00
47616;DHT22;69146;52.266;7.000;2023-07-16T16:47:37;25.90;86.30
47616;DHT22;69146;52.266;7.000;2023-07-16T16:50:21;25.40;87.10
47616;DHT22;69146;52.266;7.000;2023-07-16T16:53:06;25.00;88.00
47616;DHT22;69146;52.266;7.000;2023-07-16T16:55:52;24.50;88.90
47616;DHT22;69146;52.266;7.000;2023-07-16T16:58:36;24.20;89.10
47616;DHT22;69146;52.266;7.000;2023-07-16T17:01:20;23.90;89.40
47616;DHT22;69146;52.266;7.000;2023-07-16T17:04:05;23.80;90.30
47616;DHT22;69146;52.266;7.000;2023-07-16T17:06:49;23.60;90.30
47616;DHT22;69146;52.266;7.000;2023-07-16T17:09:37;23.50;90.40
47616;DHT22;69146;52.266;7.000;2023-07-16T17:12:23;23.50;90.40
47616;DHT22;69146;52.266;7.000;2023-07-16T17:15:08;23.40;90.40
47616;DHT22;69146;52.266;7.000;2023-07-16T17:17:53;23.20;90.40
47616;DHT22;69146;52.266;7.000;2023-07-16T17:20:38;23.10;90.80
47616;DHT22;69146;52.266;7.000;2023-07-16T17:23:22;23.10;91.10
47616;DHT22;69146;52.266;7.000;2023-07-16T17:26:07;23.10;91.10